Time;durP1;ratioP1;P1;durP2;ratioP2;P2;SDS_P1;SDS_P2;PMS_P1;PMS_P2;Temp;Humidity;BMP_temperature;BMP_pressure;BME280_temperature;BME280_humidity;BME280_pressure;Samples;Min_cycle;Max_cycle;Signal;HPM_P1;HPM_P2
2022/12/18 00:02:21;;;;;;;0.20;0.20;;;-3.30;99.90;;;;;;5057752;28;20049;-93
2022/12/18 00:04:51;;;;;;;7.23;3.50;;;-3.60;99.90;;;;;;5057343;28;20100;-92
2022/12/18 00:07:17;;;;;;;2.57;2.37;;;-3.40;99.90;;;;;;5058106;28;20460;-93
2022/12/18 00:09:43;;;;;;;0.93;0.93;;;-3.40;99.90;;;;;;5056194;28;20064;-93
2022/12/18 00:12:12;;;;;;;1.27;1.17;;;-2.90;99.90;;;;;;5053540;28;20067;-92
2022/12/18 00:14:43;;;;;;;5.87;1.63;;;-3.70;99.90;;;;;;5057802;28;20029;-93
2022/12/18 00:17:08;;;;;;;3.23;3.03;;;-3.90;99.90;;;;;;5066473;22;20449;-73
2022/12/18 00:19:34;;;;;;;1.60;1.50;;;-3.60;99.90;;;;;;5062096;28;20052;-73
2022/12/18 00:22:00;;;;;;;2.53;2.33;;;-3.60;99.90;;;;;;5060065;28;20137;-74
2022/12/18 00:24:26;;;;;;;2.03;1.90;;;-3.60;99.90;;;;;;5061910;28;20110;-73
2022/12/18 00:26:51;;;;;;;0.40;0.40;;;-3.60;99.90;;;;;;5048550;28;20037;-73
2022/12/18 00:29:17;;;;;;;1.80;1.70;;;-3.70;99.90;;;;;;5042140;28;20418;-73
2022/12/18 00:31:43;;;;;;;0.73;0.73;;;-3.70;99.90;;;;;;5042388;28;20052;-73
2022/12/18 00:34:12;;;;;;;4.73;3.57;;;-3.60;99.90;;;;;;5041556;28;20052;-73
2022/12/18 00:36:40;;;;;;;9.90;5.50;;;-3.50;99.90;;;;;;5053093;28;20570;-73
2022/12/18 00:39:05;;;;;;;4.23;2.63;;;-3.50;99.90;;;;;;5061184;28;20040;-74
2022/12/18 00:44:17;;;;;;;1.00;1.00;;;-3.20;99.90;;;;;;5063691;28;20048;-73
2022/12/18 00:46:43;;;;;;;2.37;2.27;;;-3.60;99.90;;;;;;5063045;28;20151;-74
2022/12/18 00:49:12;;;;;;;2.83;0.93;;;-3.70;99.90;;;;;;5063401;28;20059;-73
2022/12/18 00:51:38;;;;;;;1.40;1.30;;;-3.80;99.90;;;;;;5059371;28;20049;-74
2022/12/18 00:54:04;;;;;;;0.80;0.80;;;-4.00;99.90;;;;;;5043597;28;20146;-73
2022/12/18 00:56:30;;;;;;;3.33;3.03;;;-4.00;99.90;;;;;;5044044;28;20083;-73
2022/12/18 00:58:56;;;;;;;9.00;4.23;;;-4.00;99.90;;;;;;5043485;28;20045;-73
2022/12/18 01:01:22;;;;;;;2.43;2.20;;;-4.10;99.90;;;;;;5061875;28;20051;-73
2022/12/18 01:03:48;;;;;;;2.70;2.00;;;-4.00;99.90;;;;;;5063915;28;20578;-73
2022/12/18 01:06:15;;;;;;;0.50;0.50;;;-4.00;99.90;;;;;;5062007;28;20074;-73
2022/12/18 01:08:42;;;;;;;4.80;2.40;;;-3.90;99.90;;;;;;5063258;28;20068;-73
2022/12/18 01:11:17;;;;;;;2.93;2.73;;;-4.00;99.90;;;;;;5051950;28;20123;-73
2022/12/18 01:13:43;;;;;;;1.77;1.67;;;-4.10;99.90;;;;;;5041906;28;20051;-73
2022/12/18 01:16:11;;;;;;;0.20;0.20;;;-4.10;99.90;;;;;;5043627;28;20040;-73
2022/12/18 01:18:36;;;;;;;0.13;0.13;;;-4.20;99.90;;;;;;5061274;28;20048;-73
2022/12/18 01:21:07;;;;;;;2.00;0.73;;;-4.30;99.90;;;;;;5064138;28;20048;-72
2022/12/18 01:23:32;;;;;;;1.07;1.07;;;-4.30;99.90;;;;;;5066159;28;20044;-72
2022/12/18 01:25:58;;;;;;;0.50;0.50;;;-4.30;99.90;;;;;;5067995;28;20517;-75
2022/12/18 01:28:23;;;;;;;2.17;1.97;;;-4.40;99.90;;;;;;5065832;28;20048;-72
2022/12/18 01:30:49;;;;;;;4.27;3.10;;;-4.40;99.90;;;;;;5067100;28;20045;-72
2022/12/18 01:33:15;;;;;;;1.60;1.50;;;-4.40;99.90;;;;;;5067120;28;20048;-74
2022/12/18 01:35:42;;;;;;;1.80;1.70;;;-4.50;99.90;;;;;;5067469;28;20455;-73
2022/12/18 01:38:08;;;;;;;1.40;1.27;;;-4.60;99.90;;;;;;5065495;28;20048;-73
2022/12/18 01:40:33;;;;;;;0.17;0.17;;;-4.60;99.90;;;;;;5067853;28;20051;-73
2022/12/18 01:42:59;;;;;;;6.03;5.00;;;-4.60;99.90;;;;;;5067377;28;20147;-75
2022/12/18 01:45:28;;;;;;;5.67;2.50;;;-4.60;99.90;;;;;;5067808;28;20123;-74
2022/12/18 01:48:03;;;;;;;0.93;0.93;;;-3.60;99.90;;;;;;5067805;28;20040;-74
2022/12/18 01:50:33;;;;;;;0.52;0.52;;;-4.80;99.90;;;;;;5066522;28;20044;-74
2022/12/18 01:53:15;;;;;;;0.97;0.97;;;-4.80;99.90;;;;;;5060739;28;20048;-74
2022/12/18 01:56:01;;;;;;;2.30;1.80;;;-4.80;99.90;;;;;;5054232;28;20137;-73
2022/12/18 01:58:46;;;;;;;0.90;0.90;;;-4.80;99.90;;;;;;5047640;28;20060;-74
2022/12/18 02:01:12;;;;;;;3.87;2.13;;;-4.80;99.90;;;;;;5064141;28;20098;-74
2022/12/18 02:03:41;;;;;;;1.83;1.73;;;-4.80;99.90;;;;;;5067111;28;20040;-74
2022/12/18 02:06:39;;;;;;;2.10;2.00;;;-4.80;99.90;;;;;;5066712;28;20139;-74
2022/12/18 02:09:11;;;;;;;4.60;2.30;;;-4.80;99.90;;;;;;5066966;28;20120;-74
2022/12/18 02:11:49;;;;;;;2.73;2.20;;;-4.90;99.90;;;;;;5066826;28;20530;-74
2022/12/18 02:14:24;;;;;;;0.97;0.90;;;-5.00;99.90;;;;;;5066619;28;20063;-74
2022/12/18 02:17:04;;;;;;;3.73;3.43;;;-4.90;99.90;;;;;;5066354;28;20438;-74
2022/12/18 02:19:43;;;;;;;6.07;2.33;;;-4.70;99.90;;;;;;5066964;28;20055;-74
2022/12/18 02:22:39;;;;;;;0.73;0.73;;;-4.60;99.90;;;;;;5066944;28;20095;-74
2022/12/18 02:25:20;;;;;;;0.55;0.55;;;-4.60;99.90;;;;;;5066168;28;20040;-74
2022/12/18 02:27:47;;;;;;;2.27;2.03;;;-4.50;99.90;;;;;;5065892;28;20045;-74
2022/12/18 02:30:13;;;;;;;2.07;1.97;;;-4.50;99.90;;;;;;5065721;28;20528;-74
2022/12/18 02:32:50;;;;;;;2.60;2.40;;;-4.50;99.90;;;;;;5065077;28;20051;-74
2022/12/18 02:35:24;;;;;;;1.53;1.27;;;-4.60;99.90;;;;;;5064427;28;20062;-74
2022/12/18 02:37:54;;;;;;;2.00;1.90;;;-4.70;99.90;;;;;;5065168;28;20555;-74
2022/12/18 02:40:22;;;;;;;0.53;0.53;;;-5.00;99.90;;;;;;5066344;28;20177;-74
2022/12/18 02:42:47;;;;;;;1.63;1.23;;;-5.10;99.90;;;;;;5065131;28;20052;-74
2022/12/18 02:45:13;;;;;;;0.80;0.80;;;-5.20;99.90;;;;;;5064898;28;20174;-74
2022/12/18 02:47:42;;;;;;;1.23;1.23;;;-5.30;99.90;;;;;;5065419;28;20080;-74
2022/12/18 02:50:26;;;;;;;0.50;0.50;;;-5.40;99.90;;;;;;5064954;28;20091;-74
2022/12/18 02:53:10;;;;;;;6.20;2.87;;;-5.50;99.90;;;;;;5064928;28;20044;-74
2022/12/18 02:55:45;;;;;;;2.47;2.27;;;-5.60;99.90;;;;;;5065628;28;20040;-73
2022/12/18 02:58:56;;;;;;;1.23;1.20;;;-5.60;99.90;;;;;;5064871;28;20127;-74
2022/12/18 03:01:55;;;;;;;2.43;1.90;;;-5.60;99.90;;;;;;5057177;28;20425;-74
2022/12/18 03:04:39;;;;;;;0.53;0.53;;;-5.60;99.90;;;;;;5064884;28;20053;-74
2022/12/18 03:07:10;;;;;;;1.50;1.40;;;-5.70;99.90;;;;;;5064844;28;20048;-73
2022/12/18 03:09:40;;;;;;;0.80;0.80;;;-5.80;99.90;;;;;;5064589;28;20052;-74
2022/12/18 03:12:34;;;;;;;4.80;4.03;;;-5.80;99.90;;;;;;5065101;28;20097;-74
2022/12/18 03:15:02;;;;;;;4.70;3.33;;;-5.80;99.90;;;;;;5065001;28;20516;-74
2022/12/18 03:17:31;;;;;;;1.43;1.13;;;-5.90;99.90;;;;;;5064896;28;20096;-72
2022/12/18 03:20:02;;;;;;;1.43;1.33;;;-5.90;99.90;;;;;;5065279;28;20069;-73
2022/12/18 03:22:31;;;;;;;3.23;2.93;;;-5.90;99.90;;;;;;5064558;28;20044;-73
2022/12/18 03:25:00;;;;;;;3.10;1.60;;;-6.00;99.90;;;;;;5064844;28;20104;-73
2022/12/18 03:27:28;;;;;;;5.13;1.40;;;-6.00;99.90;;;;;;5064403;28;20040;-73
2022/12/18 03:30:07;;;;;;;1.93;1.83;;;-6.00;99.90;;;;;;5063949;28;20318;-73
2022/12/18 03:32:42;;;;;;;0.10;0.10;;;-6.00;99.90;;;;;;5064402;28;20098;-72
2022/12/18 03:35:12;;;;;;;3.13;2.87;;;-6.00;99.90;;;;;;5064131;28;20044;-73
2022/12/18 03:37:38;;;;;;;1.57;1.40;;;-6.00;99.90;;;;;;5064148;28;20131;-72
2022/12/18 03:40:05;;;;;;;1.03;0.60;;;-5.90;99.90;;;;;;5064138;28;20135;-73
2022/12/18 03:42:36;;;;;;;1.87;1.70;;;-6.00;99.90;;;;;;5063887;28;20261;-73
2022/12/18 03:45:18;;;;;;;2.93;2.73;;;-6.00;99.90;;;;;;5063735;28;20145;-74
2022/12/18 03:48:20;;;;;;;4.37;3.83;;;-6.00;99.90;;;;;;5064140;28;20055;-74
2022/12/18 03:51:01;;;;;;;1.07;1.07;;;-6.10;99.90;;;;;;5058059;28;20060;-74
2022/12/18 03:53:49;;;;;;;1.60;1.50;;;-6.10;99.90;;;;;;5064752;28;20497;-74
2022/12/18 03:56:16;;;;;;;4.37;1.07;;;-6.10;99.90;;;;;;5064953;28;20052;-74
2022/12/18 03:58:43;;;;;;;4.53;2.73;;;-6.20;99.90;;;;;;5064901;28;20090;-74
2022/12/18 04:01:13;;;;;;;2.10;1.90;;;-6.10;99.90;;;;;;5063793;28;20493;-74
2022/12/18 04:03:39;;;;;;;1.10;1.10;;;-6.10;99.90;;;;;;5064762;28;20147;-72
2022/12/18 04:06:06;;;;;;;2.93;2.77;;;-6.10;99.90;;;;;;5056318;28;20041;-74
2022/12/18 04:08:34;;;;;;;1.50;1.40;;;-6.00;99.90;;;;;;5044936;28;20076;-72
2022/12/18 04:11:00;;;;;;;1.87;1.63;;;-5.90;99.90;;;;;;5045508;28;20564;-72
2022/12/18 04:13:33;;;;;;;0.90;0.90;;;-5.90;99.90;;;;;;5053854;28;20052;-72
2022/12/18 04:15:59;;;;;;;0.63;0.63;;;-5.90;99.90;;;;;;5063522;28;20051;-72
2022/12/18 04:18:25;;;;;;;4.57;3.30;;;-6.10;99.90;;;;;;5082072;28;20059;-72
2022/12/18 04:20:51;;;;;;;2.73;2.53;;;-6.10;99.90;;;;;;5085152;28;20055;-72
2022/12/18 04:23:16;;;;;;;5.37;3.03;;;-6.10;99.90;;;;;;5083996;28;20051;-72
2022/12/18 04:25:42;;;;;;;4.10;3.83;;;-6.20;99.90;;;;;;5084244;28;20039;-72
2022/12/18 04:28:08;;;;;;;0.93;0.73;;;-6.20;99.90;;;;;;5083061;28;20073;-72
2022/12/18 04:30:33;;;;;;;0.57;0.53;;;-6.30;99.90;;;;;;5081836;28;20130;-72
2022/12/18 04:32:59;;;;;;;13.47;8.03;;;-6.40;99.90;;;;;;5081428;28;20040;-72
2022/12/18 04:35:25;;;;;;;1.00;0.97;;;-6.50;99.90;;;;;;5081977;28;20054;-72
2022/12/18 04:37:50;;;;;;;1.33;1.23;;;-6.50;99.90;;;;;;5082140;28;20101;-72
2022/12/18 04:40:16;;;;;;;1.47;1.37;;;-6.60;99.90;;;;;;5081601;28;20036;-72
2022/12/18 04:42:42;;;;;;;0.20;0.20;;;-6.50;99.90;;;;;;5081421;28;20068;-72
2022/12/18 04:45:08;;;;;;;0.10;0.10;;;-6.60;99.90;;;;;;5081472;28;20040;-72
2022/12/18 04:47:33;;;;;;;1.70;1.60;;;-6.60;99.90;;;;;;5081833;28;20481;-72
2022/12/18 04:49:59;;;;;;;0.87;0.50;;;-6.60;99.90;;;;;;5081637;28;20051;-72
2022/12/18 04:52:25;;;;;;;0.10;0.10;;;-6.60;99.90;;;;;;5081416;28;20044;-72
2022/12/18 04:54:51;;;;;;;3.53;3.30;;;-6.60;99.90;;;;;;5081790;28;20135;-72
2022/12/18 04:57:17;;;;;;;0.80;0.80;;;-6.60;99.90;;;;;;5080986;28;20044;-72
2022/12/18 04:59:43;;;;;;;1.17;1.13;;;-6.60;99.90;;;;;;5081809;28;20055;-72
2022/12/18 05:02:09;;;;;;;0.60;0.60;;;-6.50;99.90;;;;;;5062897;28;20044;-72
2022/12/18 05:04:35;;;;;;;3.50;3.20;;;-6.30;99.90;;;;;;5081041;28;20074;-72
2022/12/18 05:07:00;;;;;;;0.47;0.47;;;-6.50;99.90;;;;;;5081254;28;20040;-72
2022/12/18 05:09:26;;;;;;;3.30;1.80;;;-6.60;99.90;;;;;;5081324;28;20454;-72
2022/12/18 05:11:51;;;;;;;0.07;0.07;;;-6.60;99.90;;;;;;5081309;28;20047;-72
2022/12/18 05:14:17;;;;;;;0.73;0.73;;;-6.60;99.90;;;;;;5080912;28;20501;-72
2022/12/18 05:16:43;;;;;;;2.33;2.23;;;-6.70;99.90;;;;;;5081531;28;20064;-72
2022/12/18 05:19:08;;;;;;;0.93;0.93;;;-6.70;99.90;;;;;;5081654;28;20416;-72
2022/12/18 05:21:34;;;;;;;0.93;0.93;;;-6.80;99.90;;;;;;5081389;28;20047;-72
2022/12/18 05:23:59;;;;;;;3.10;2.33;;;-6.80;99.90;;;;;;5081790;28;20097;-72
2022/12/18 05:26:25;;;;;;;1.80;1.70;;;-6.90;99.90;;;;;;5078651;28;20132;-72
2022/12/18 05:28:51;;;;;;;0.63;0.63;;;-6.80;99.90;;;;;;5061231;28;20056;-72
2022/12/18 05:31:16;;;;;;;0.60;0.60;;;-7.00;99.90;;;;;;5061186;28;20048;-72
2022/12/18 05:33:42;;;;;;;0.53;0.50;;;-7.10;99.90;;;;;;5052346;28;20401;-72
2022/12/18 05:36:09;;;;;;;0.73;0.73;;;-7.10;99.90;;;;;;5081146;28;20048;-72
2022/12/18 05:38:36;;;;;;;0.27;0.27;;;-7.10;99.90;;;;;;5081062;28;20063;-72
2022/12/18 05:41:03;;;;;;;0.43;0.43;;;-7.00;99.90;;;;;;5080867;28;20077;-72
2022/12/18 05:43:29;;;;;;;0.83;0.83;;;-6.90;99.90;;;;;;5080831;28;20959;-72
2022/12/18 05:45:56;;;;;;;0.20;0.20;;;-6.80;99.90;;;;;;5081014;28;20040;-72
2022/12/18 05:48:22;;;;;;;0.63;0.63;;;-6.80;99.90;;;;;;5081157;28;20122;-72
2022/12/18 05:50:49;;;;;;;12.03;4.93;;;-6.80;99.90;;;;;;5080754;28;20139;-72
2022/12/18 05:53:17;;;;;;;0.43;0.43;;;-6.70;99.90;;;;;;5080589;28;20109;-72
2022/12/18 05:55:43;;;;;;;0.30;0.30;;;-6.60;99.90;;;;;;5081541;28;20101;-72
2022/12/18 05:58:11;;;;;;;3.43;3.23;;;-6.70;99.90;;;;;;5080866;28;20039;-72
2022/12/18 06:00:42;;;;;;;2.67;1.20;;;-6.70;99.90;;;;;;5081045;28;20512;-72
2022/12/18 06:03:09;;;;;;;2.57;2.43;;;-6.70;99.90;;;;;;5080828;28;20040;-72
2022/12/18 06:05:40;;;;;;;3.07;2.87;;;-6.80;99.90;;;;;;5080882;28;20085;-72
2022/12/18 06:08:06;;;;;;;5.00;2.97;;;-6.90;99.90;;;;;;5080679;28;20474;-72
2022/12/18 06:10:32;;;;;;;0.47;0.47;;;-7.00;99.90;;;;;;5084338;28;20419;-72
2022/12/18 06:12:58;;;;;;;1.17;1.13;;;-7.00;99.90;;;;;;5083928;28;20127;-72
2022/12/18 06:15:24;;;;;;;0.20;0.20;;;-7.00;99.90;;;;;;5084129;28;20476;-71
2022/12/18 06:17:50;;;;;;;1.07;0.80;;;-7.00;99.90;;;;;;5084359;28;20469;-72
2022/12/18 06:20:15;;;;;;;1.93;0.73;;;-7.00;99.90;;;;;;5084492;28;20340;-72
2022/12/18 06:22:41;;;;;;;0.70;0.70;;;-7.00;99.90;;;;;;5084648;28;20048;-72
2022/12/18 06:25:07;;;;;;;0.30;0.30;;;-7.10;99.90;;;;;;5084820;28;20044;-72
2022/12/18 06:27:35;;;;;;;0.77;0.77;;;-7.10;99.90;;;;;;5084463;28;20063;-72
2022/12/18 06:30:01;;;;;;;2.17;2.00;;;-7.10;99.90;;;;;;5084412;28;20626;-72
2022/12/18 06:32:27;;;;;;;0.93;0.93;;;-7.10;99.90;;;;;;5066343;28;20056;-72
2022/12/18 06:34:55;;;;;;;0.53;0.53;;;-7.10;99.90;;;;;;5083942;28;20299;-72
2022/12/18 06:37:21;;;;;;;3.30;1.57;;;-7.00;99.90;;;;;;5083952;28;20412;-72
2022/12/18 06:39:46;;;;;;;0.30;0.30;;;-7.00;99.90;;;;;;5084572;28;20077;-72
2022/12/18 06:42:12;;;;;;;3.10;2.33;;;-7.10;99.90;;;;;;5084271;28;20063;-72
2022/12/18 06:44:38;;;;;;;2.73;1.30;;;-7.20;99.90;;;;;;5083695;28;20044;-72
2022/12/18 06:47:03;;;;;;;1.13;1.13;;;-7.30;99.90;;;;;;5084005;28;20040;-72
2022/12/18 06:49:29;;;;;;;0.53;0.53;;;-7.30;99.90;;;;;;5084020;28;20040;-72
2022/12/18 06:51:55;;;;;;;1.73;1.63;;;-7.40;99.90;;;;;;5084026;28;20481;-72
2022/12/18 06:54:20;;;;;;;3.60;2.93;;;-7.40;99.90;;;;;;5083923;28;20050;-72
2022/12/18 06:56:46;;;;;;;1.70;1.60;;;-7.60;99.90;;;;;;5083967;28;20101;-72
2022/12/18 06:59:14;;;;;;;0.40;0.40;;;-7.60;99.90;;;;;;5083971;28;20071;-72
2022/12/18 07:01:40;;;;;;;0.10;0.10;;;-7.60;99.90;;;;;;5083217;28;20079;-72
2022/12/18 07:04:05;;;;;;;1.07;1.07;;;-7.60;99.90;;;;;;5083725;28;20515;-72
2022/12/18 07:06:31;;;;;;;7.20;2.53;;;-7.70;99.90;;;;;;5083671;28;20527;-72
2022/12/18 07:08:56;;;;;;;0.30;0.30;;;-7.70;99.90;;;;;;5083510;28;20075;-72
2022/12/18 07:11:22;;;;;;;0.17;0.17;;;-7.70;99.90;;;;;;5083866;28;20523;-72
2022/12/18 07:13:48;;;;;;;0.80;0.80;;;-7.80;99.90;;;;;;5083269;28;20071;-72
2022/12/18 07:16:18;;;;;;;0.50;0.50;;;-7.90;99.90;;;;;;5082941;28;20079;-72
2022/12/18 07:18:45;;;;;;;0.33;0.33;;;-7.80;99.90;;;;;;5081817;28;20056;-72
2022/12/18 07:21:13;;;;;;;0.30;0.30;;;-7.70;99.90;;;;;;5082669;28;20044;-72
2022/12/18 07:23:39;;;;;;;2.73;2.37;;;-7.50;99.90;;;;;;5064677;28;20043;-72
2022/12/18 07:26:11;;;;;;;2.20;2.00;;;-7.60;99.90;;;;;;5083001;28;20475;-72
2022/12/18 07:28:38;;;;;;;3.63;2.20;;;-7.70;99.90;;;;;;5083244;28;20416;-72
2022/12/18 07:31:05;;;;;;;3.50;3.00;;;-7.80;99.90;;;;;;5083224;28;20485;-72
2022/12/18 07:33:32;;;;;;;1.53;1.43;;;-7.80;99.90;;;;;;5082760;28;20048;-72
2022/12/18 07:35:59;;;;;;;0.10;0.10;;;-7.80;99.90;;;;;;5082811;28;20145;-72
2022/12/18 07:38:25;;;;;;;1.03;1.03;;;-7.80;99.90;;;;;;5082560;28;20052;-72
2022/12/18 07:40:50;;;;;;;4.90;2.00;;;-7.80;99.90;;;;;;5083193;28;20052;-72
2022/12/18 07:43:16;;;;;;;0.73;0.73;;;-7.90;99.90;;;;;;5082950;28;20447;-72
2022/12/18 07:45:42;;;;;;;0.37;0.37;;;-8.00;99.90;;;;;;5082472;28;20513;-72
2022/12/18 07:48:08;;;;;;;0.10;0.10;;;-8.00;99.90;;;;;;5082666;28;20044;-72
2022/12/18 07:50:34;;;;;;;0.10;0.10;;;-8.00;99.90;;;;;;5082838;28;20043;-72
2022/12/18 07:53:03;;;;;;;0.80;0.43;;;-8.00;99.90;;;;;;5082896;28;20052;-72
2022/12/18 07:55:30;;;;;;;4.40;4.03;;;-8.10;99.90;;;;;;5082098;28;20086;-72
2022/12/18 07:57:55;;;;;;;5.47;4.63;;;-7.80;99.90;;;;;;5082696;28;20051;-72
2022/12/18 08:00:21;;;;;;;0.13;0.13;;;-8.10;99.90;;;;;;5082818;28;20043;-72
2022/12/18 08:02:47;;;;;;;0.30;0.30;;;-8.20;99.90;;;;;;5082282;28;20493;-72
2022/12/18 08:05:13;;;;;;;0.83;0.83;;;-8.10;99.90;;;;;;5082351;28;20048;-72
2022/12/18 08:07:39;;;;;;;2.10;2.00;;;-8.00;99.90;;;;;;5082392;28;20051;-71
2022/12/18 08:10:06;;;;;;;0.63;0.63;;;-8.00;99.90;;;;;;5082451;28;20105;-72
2022/12/18 08:12:32;;;;;;;0.10;0.10;;;-7.90;99.90;;;;;;5082371;28;20060;-72
2022/12/18 08:14:57;;;;;;;0.10;0.10;;;-7.80;99.90;;;;;;5081980;28;20586;-72
2022/12/18 08:17:23;;;;;;;1.80;1.13;;;-7.70;99.90;;;;;;5081894;28;20055;-72
2022/12/18 08:19:49;;;;;;;0.10;0.10;;;-7.60;99.90;;;;;;5082304;28;20153;-72
2022/12/18 08:22:15;;;;;;;0.53;0.53;;;-7.60;99.90;;;;;;5082172;28;20093;-72
2022/12/18 08:24:40;;;;;;;0.37;0.37;;;-7.50;99.90;;;;;;5082022;28;20123;-72
2022/12/18 08:27:06;;;;;;;0.47;0.47;;;-7.40;99.90;;;;;;5079682;28;20048;-72
2022/12/18 08:29:31;;;;;;;2.43;1.30;;;-7.40;99.90;;;;;;5060364;28;20099;-72
2022/12/18 08:31:57;;;;;;;1.30;1.03;;;-7.30;99.90;;;;;;5047172;28;20133;-72
2022/12/18 08:34:23;;;;;;;0.10;0.10;;;-7.30;99.90;;;;;;5081238;28;20048;-72
2022/12/18 08:36:49;;;;;;;0.40;0.40;;;-7.10;99.90;;;;;;5081478;28;20501;-72
2022/12/18 08:39:14;;;;;;;0.17;0.17;;;-7.00;99.90;;;;;;5068394;28;20750;-72
2022/12/18 08:41:40;;;;;;;1.27;0.90;;;-7.00;99.90;;;;;;5061372;28;20045;-72
2022/12/18 08:46:52;;;;;;;2.17;1.98;;;-6.90;99.90;;;;;;5076867;28;20420;-72
2022/12/18 08:49:18;;;;;;;2.13;2.03;;;-6.80;99.90;;;;;;5077051;28;20036;-72
2022/12/18 08:51:44;;;;;;;0.60;0.60;;;-6.80;99.90;;;;;;5071134;28;20124;-72
2022/12/18 08:54:12;;;;;;;0.20;0.20;;;-6.70;99.90;;;;;;5069771;28;20123;-73
2022/12/18 08:56:38;;;;;;;1.23;1.13;;;-6.70;99.90;;;;;;5070509;28;20049;-72
2022/12/18 08:59:04;;;;;;;1.20;1.17;;;-6.60;99.90;;;;;;5070789;28;20463;-72
2022/12/18 09:01:30;;;;;;;1.30;1.23;;;-6.60;99.90;;;;;;5071221;28;20454;-72
2022/12/18 09:03:55;;;;;;;0.13;0.13;;;-6.60;99.90;;;;;;5073248;28;20044;-72
2022/12/18 09:06:22;;;;;;;0.37;0.37;;;-6.50;99.90;;;;;;5070364;28;20500;-72
2022/12/18 09:08:48;;;;;;;3.00;1.43;;;-6.50;99.90;;;;;;5069403;28;20115;-73
2022/12/18 09:11:26;;;;;;;0.40;0.40;;;-6.50;99.90;;;;;;5071374;28;20071;-72
2022/12/18 09:13:52;;;;;;;0.00;0.00;;;-6.40;99.90;;;;;;5070337;28;20544;-72
2022/12/18 09:16:19;;;;;;;0.10;0.10;;;-6.30;99.90;;;;;;5070874;28;20040;-73
2022/12/18 09:18:45;;;;;;;0.27;0.27;;;-6.30;99.90;;;;;;5051058;28;20131;-72
2022/12/18 09:21:17;;;;;;;0.47;0.47;;;-6.10;99.90;;;;;;5042998;28;20529;-73
2022/12/18 09:23:43;;;;;;;1.90;1.80;;;-6.10;99.90;;;;;;5047647;28;20053;-73
2022/12/18 09:26:08;;;;;;;0.13;0.13;;;-6.00;99.90;;;;;;5049021;28;20048;-73
2022/12/18 09:28:34;;;;;;;0.10;0.10;;;-5.90;99.90;;;;;;5034247;28;20132;-73
2022/12/18 09:31:05;;;;;;;0.50;0.50;;;-5.70;99.90;;;;;;5049461;28;20486;-72
2022/12/18 09:33:30;;;;;;;0.70;0.70;;;-5.60;99.90;;;;;;5046568;28;20487;-73
2022/12/18 09:35:56;;;;;;;4.53;1.60;;;-5.50;1.00;;;;;;5054971;28;20497;-72
2022/12/18 09:38:23;;;;;;;0.80;0.80;;;-5.40;1.00;;;;;;5040788;28;20094;-73
2022/12/18 09:40:56;;;;;;;0.10;0.10;;;-5.30;1.00;;;;;;5040925;28;20063;-73
2022/12/18 09:43:40;;;;;;;3.27;2.97;;;-5.20;1.00;;;;;;5045799;28;20040;-72
2022/12/18 09:46:11;;;;;;;1.53;1.43;;;-5.10;99.90;;;;;;5065053;28;20046;-72
2022/12/18 09:48:48;;;;;;;1.07;0.63;;;-5.00;99.90;;;;;;5064402;28;20055;-72
2022/12/18 09:51:15;;;;;;;;;;;-4.80;99.90;;;;;;5065033;28;20056;-72
2022/12/18 09:53:46;;;;;;;0.73;0.73;;;-4.70;1.00;;;;;;5064017;28;20032;-72
2022/12/18 09:56:22;;;;;;;0.50;0.50;;;-4.60;90.60;;;;;;5052273;28;20044;-72
2022/12/18 09:58:57;;;;;;;0.70;0.70;;;-4.40;99.90;;;;;;5034970;28;20056;-73
2022/12/18 10:01:23;;;;;;;1.03;1.03;;;-4.40;99.90;;;;;;5052144;28;20122;-72
2022/12/18 10:03:50;;;;;;;1.13;1.13;;;-4.40;99.90;;;;;;5053709;28;20036;-73
2022/12/18 10:06:34;;;;;;;2.90;1.83;;;-4.40;1.00;;;;;;5056415;28;20111;-73
2022/12/18 10:09:19;;;;;;;0.57;0.57;;;-4.50;74.30;;;;;;5035154;28;20052;-73
2022/12/18 10:12:12;;;;;;;0.67;0.67;;;-4.50;99.90;;;;;;5053745;28;20049;-73
2022/12/18 10:14:51;;;;;;;0.27;0.27;;;-4.60;99.90;;;;;;5050487;28;20049;-72
2022/12/18 10:17:40;;;;;;;0.50;0.50;;;-4.60;99.90;;;;;;5050070;28;20144;-73
2022/12/18 10:20:27;;;;;;;0.37;0.37;;;-4.50;1.00;;;;;;5063740;28;20371;-72
2022/12/18 10:23:08;;;;;;;0.10;0.10;;;-4.50;99.90;;;;;;5062717;28;20132;-73
2022/12/18 10:26:04;;;;;;;0.40;0.40;;;-4.50;99.90;;;;;;5063089;28;20127;-72
2022/12/18 10:28:32;;;;;;;0.30;0.30;;;-4.50;99.90;;;;;;5071064;28;20040;-72
2022/12/18 10:30:58;;;;;;;0.30;0.30;;;-4.20;99.90;;;;;;5083407;28;20051;-73
2022/12/18 10:33:29;;;;;;;0.03;0.03;;;-4.20;99.90;;;;;;5082436;28;20073;-73
2022/12/18 10:35:55;;;;;;;1.60;1.50;;;-4.10;99.90;;;;;;5063536;28;20051;-72
2022/12/18 10:38:26;;;;;;;0.77;0.77;;;-4.10;87.10;;;;;;5045104;28;20633;-73
2022/12/18 10:41:02;;;;;;;0.10;0.10;;;-4.00;99.90;;;;;;5064240;28;20059;-73
2022/12/18 10:43:39;;;;;;;0.20;0.20;;;-4.00;99.90;;;;;;5079368;28;20087;-73
2022/12/18 10:46:08;;;;;;;0.03;0.03;;;-3.90;99.90;;;;;;5079500;28;20044;-73
2022/12/18 10:48:54;;;;;;;0.13;0.13;;;-3.80;19.00;;;;;;5079594;28;20048;-72
2022/12/18 10:51:22;;;;;;;0.10;0.10;;;-3.80;1.00;;;;;;5080658;28;20142;-73
2022/12/18 10:53:54;;;;;;;0.10;0.10;;;-3.70;99.90;;;;;;5079856;28;20102;-73
2022/12/18 10:56:20;;;;;;;0.17;0.17;;;-3.60;99.90;;;;;;5078959;28;20046;-72
2022/12/18 10:58:56;;;;;;;1.10;1.10;;;-3.60;99.90;;;;;;5079785;28;20438;-72
2022/12/18 11:01:22;;;;;;;0.10;0.10;;;-3.50;99.90;;;;;;5078128;28;20119;-72
2022/12/18 11:03:53;;;;;;;0.00;0.00;;;-3.40;3.00;;;;;;5080351;28;20127;-72
2022/12/18 11:06:24;;;;;;;0.10;0.10;;;-3.40;1.00;;;;;;5079323;28;20492;-72
2022/12/18 11:09:00;;;;;;;1.00;1.00;;;-3.20;99.90;;;;;;5080500;28;20378;-73
2022/12/18 11:11:26;;;;;;;0.40;0.40;;;-3.20;1.00;;;;;;5079666;28;20127;-73
2022/12/18 11:14:18;;;;;;;0.00;0.00;;;-3.10;99.90;;;;;;5060859;28;20048;-73
2022/12/18 11:16:47;;;;;;;0.40;0.40;;;-3.00;6.20;;;;;;5057606;28;20036;-73
2022/12/18 11:19:33;;;;;;;0.63;0.63;;;-2.90;99.90;;;;;;5059768;28;20046;-72
2022/12/18 11:22:01;;;;;;;7.83;2.30;;;-2.90;1.00;;;;;;5059324;28;20786;-73
2022/12/18 11:24:33;;;;;;;0.00;0.00;;;-2.80;20.90;;;;;;5069422;28;20115;-72
2022/12/18 11:27:02;;;;;;;0.10;0.10;;;-2.70;99.90;;;;;;5063504;28;20047;-72
2022/12/18 11:29:39;;;;;;;0.57;0.37;;;-2.70;99.90;;;;;;5079455;28;20329;-73
2022/12/18 11:32:38;;;;;;;1.33;1.23;;;-2.60;99.90;;;;;;5079405;28;20052;-72
2022/12/18 11:35:10;;;;;;;1.40;0.83;;;-2.50;99.90;;;;;;5079120;28;20515;-72
2022/12/18 11:37:36;;;;;;;0.27;0.27;;;-2.50;99.90;;;;;;5079689;28;20075;-72
2022/12/18 11:40:13;;;;;;;0.00;0.00;;;-2.40;99.90;;;;;;5079904;28;20050;-73
2022/12/18 11:42:57;;;;;;;0.10;0.10;;;-2.40;1.00;;;;;;5080241;22;20044;-72
2022/12/18 11:45:31;;;;;;;1.20;0.90;;;-2.30;1.00;;;;;;5062233;28;20136;-73
2022/12/18 11:50:33;;;;;;;0.10;0.10;;;-2.30;99.90;;;;;;4994497;28;20054;-73
2022/12/18 11:52:59;;;;;;;0.20;0.20;;;-2.20;1.00;;;;;;5026825;22;20075;-86
2022/12/18 11:56:15;;;;;;;0.10;0.10;;;-2.20;1.00;;;;;;5051556;28;20040;-86
2022/12/18 11:58:47;;;;;;;0.00;0.00;;;-2.10;99.90;;;;;;5072330;28;20086;-86
2022/12/18 12:01:41;;;;;;;0.20;0.20;;;-2.10;99.90;;;;;;5072255;28;20052;-86
2022/12/18 12:04:32;;;;;;;0.00;0.00;;;-2.00;99.90;;;;;;5090990;28;20071;-86
2022/12/18 12:07:17;;;;;;;0.40;0.40;;;-1.90;99.90;;;;;;5071508;28;20397;-86
2022/12/18 12:09:43;;;;;;;0.63;0.63;;;-1.90;99.90;;;;;;5071518;28;20056;-86
2022/12/18 12:12:45;;;;;;;0.00;0.00;;;-1.90;99.90;;;;;;5073253;28;20040;-86
2022/12/18 12:15:30;;;;;;;0.10;0.10;;;-1.80;99.90;;;;;;5095439;28;20146;-86
2022/12/18 12:18:17;;;;;;;0.10;0.10;;;-1.80;99.90;;;;;;5076982;28;20051;-86
2022/12/18 12:21:01;;;;;;;;;;;-1.70;99.90;;;;;;5077065;28;20302;-86
2022/12/18 12:23:57;;;;;;;0.00;0.00;;;-1.70;99.90;;;;;;5075999;28;20011;-86
2022/12/18 12:26:29;;;;;;;0.80;0.80;;;-1.60;95.80;;;;;;5094527;28;20056;-86
2022/12/18 12:29:02;;;;;;;0.00;0.00;;;-1.60;99.90;;;;;;5076411;28;20054;-86
2022/12/18 12:31:51;;;;;;;0.43;0.43;;;-1.90;99.90;;;;;;5076434;28;20040;-86
2022/12/18 12:34:32;;;;;;;0.47;0.47;;;-1.00;99.90;;;;;;5096350;28;20124;-86
2022/12/18 12:37:10;;;;;;;0.30;0.30;;;-1.50;99.90;;;;;;5059420;28;20047;-86
2022/12/18 12:39:40;;;;;;;0.43;0.43;;;-1.40;5.80;;;;;;5076667;28;20467;-86
2022/12/18 12:45:04;;;;;;;3.73;2.33;;;-1.30;1.00;;;;;;5076107;28;20413;-86
2022/12/18 12:47:40;;;;;;;0.00;0.00;;;-1.30;99.90;;;;;;5076940;28;20087;-87
2022/12/18 12:50:15;;;;;;;0.00;0.00;;;-1.30;99.90;;;;;;5076946;28;20048;-87
2022/12/18 12:52:46;;;;;;;0.10;0.10;;;-1.20;99.90;;;;;;5095060;28;20067;-86
2022/12/18 12:55:26;;;;;;;0.90;0.87;;;-1.10;1.00;;;;;;5060342;28;20050;-86
2022/12/18 12:58:25;;;;;;;0.10;0.10;;;-1.10;99.90;;;;;;5099718;28;20888;-86
2022/12/18 13:01:23;;;;;;;1.08;0.90;;;-0.90;99.90;;;;;;5053467;28;20131;-86
2022/12/18 13:04:16;;;;;;;0.10;0.10;;;-1.00;99.90;;;;;;5048514;28;20044;-86
2022/12/18 13:07:11;;;;;;;0.00;0.00;;;-1.00;99.90;;;;;;5086237;28;20054;-86
2022/12/18 13:10:15;;;;;;;0.00;0.00;;;-0.90;99.90;;;;;;5104471;28;20063;-86
2022/12/18 13:12:57;;;;;;;0.53;0.53;;;-0.80;99.90;;;;;;5103410;28;20052;-86
2022/12/18 13:15:34;;;;;;;0.23;0.23;;;-0.80;99.90;;;;;;5103295;28;20048;-86
2022/12/18 13:18:08;;;;;;;0.80;0.77;;;-0.80;4.50;;;;;;5097840;28;20359;-86
2022/12/18 13:20:54;;;;;;;0.20;0.20;;;-0.70;1.00;;;;;;5068492;28;20048;-86